sensor_id;sensor_type;location;lat;lon;timestamp;temperature;humidity
21744;DHT22;11034;48.556;9.342;2023-05-10T00:00:17;12.50;99.90
21744;DHT22;11034;48.556;9.342;2023-05-10T00:02:45;12.50;99.90
21744;DHT22;11034;48.556;9.342;2023-05-10T00:05:14;12.50;99.90
21744;DHT22;11034;48.556;9.342;2023-05-10T00:07:42;12.50;99.90
21744;DHT22;11034;48.556;9.342;2023-05-10T00:10:11;12.40;99.90
21744;DHT22;11034;48.556;9.342;2023-05-10T00:12:41;12.40;99.90
21744;DHT22;11034;48.556;9.342;2023-05-10T00:15:09;12.40;99.90
21744;DHT22;11034;48.556;9.342;2023-05-10T00:17:37;12.40;99.90
21744;DHT22;11034;48.556;9.342;2023-05-10T00:20:06;12.40;99.90
21744;DHT22;11034;48.556;9.342;2023-05-10T00:22:34;12.40;99.90
21744;DHT22;11034;48.556;9.342;2023-05-10T00:25:03;12.40;99.90
21744;DHT22;11034;48.556;9.342;2023-05-10T00:27:34;12.40;99.90
21744;DHT22;11034;48.556;9.342;2023-05-10T00:30:06;12.40;99.90
21744;DHT22;11034;48.556;9.342;2023-05-10T00:32:34;12.40;99.90
21744;DHT22;11034;48.556;9.342;2023-05-10T00:35:03;12.40;99.90
21744;DHT22;11034;48.556;9.342;2023-05-10T00:37:31;12.30;99.90
21744;DHT22;11034;48.556;9.342;2023-05-10T00:39:59;12.30;99.90
21744;DHT22;11034;48.556;9.342;2023-05-10T00:42:27;12.30;99.90
21744;DHT22;11034;48.556;9.342;2023-05-10T00:44:55;12.30;99.90
21744;DHT22;11034;48.556;9.342;2023-05-10T00:47:25;12.30;99.90
21744;DHT22;11034;48.556;9.342;2023-05-10T00:49:53;12.20;99.90
21744;DHT22;11034;48.556;9.342;2023-05-10T00:52:22;12.20;99.90
21744;DHT22;11034;48.556;9.342;2023-05-10T00:54:51;12.20;99.90
21744;DHT22;11034;48.556;9.342;2023-05-10T00:57:20;12.20;99.90
21744;DHT22;11034;48.556;9.342;2023-05-10T00:59:48;12.20;99.90
21744;DHT22;11034;48.556;9.342;2023-05-10T01:02:16;12.20;99.90
21744;DHT22;11034;48.556;9.342;2023-05-10T01:04:46;12.10;99.90
21744;DHT22;11034;48.556;9.342;2023-05-10T01:07:14;12.10;99.90
21744;DHT22;11034;48.556;9.342;2023-05-10T01:09:42;12.10;99.90
21744;DHT22;11034;48.556;9.342;2023-05-10T01:12:10;12.00;99.90
21744;DHT22;11034;48.556;9.342;2023-05-10T01:14:39;12.00;99.90
21744;DHT22;11034;48.556;9.342;2023-05-10T01:17:07;11.90;99.90
21744;DHT22;11034;48.556;9.342;2023-05-10T01:19:38;11.90;99.90
21744;DHT22;11034;48.556;9.342;2023-05-10T01:22:19;11.90;99.90
21744;DHT22;11034;48.556;9.342;2023-05-10T01:25:19;11.90;99.90
21744;DHT22;11034;48.556;9.342;2023-05-10T01:28:11;11.90;99.90
21744;DHT22;11034;48.556;9.342;2023-05-10T01:31:16;11.90;99.90
21744;DHT22;11034;48.556;9.342;2023-05-10T01:33:52;11.90;99.90
21744;DHT22;11034;48.556;9.342;2023-05-10T01:36:28;11.90;99.90
21744;DHT22;11034;48.556;9.342;2023-05-10T01:39:01;11.90;99.90
21744;DHT22;11034;48.556;9.342;2023-05-10T01:41:39;11.90;99.90
21744;DHT22;11034;48.556;9.342;2023-05-10T01:44:14;11.90;99.90
21744;DHT22;11034;48.556;9.342;2023-05-10T01:46:47;11.90;99.90
21744;DHT22;11034;48.556;9.342;2023-05-10T01:49:23;11.90;99.90
21744;DHT22;11034;48.556;9.342;2023-05-10T01:51:54;11.90;99.90
21744;DHT22;11034;48.556;9.342;2023-05-10T01:54:26;11.90;99.90
21744;DHT22;11034;48.556;9.342;2023-05-10T01:56:57;11.90;99.90
21744;DHT22;11034;48.556;9.342;2023-05-10T01:59:29;11.90;99.90
21744;DHT22;11034;48.556;9.342;2023-05-10T02:01:59;11.90;99.90
21744;DHT22;11034;48.556;9.342;2023-05-10T02:04:30;11.90;99.90
21744;DHT22;11034;48.556;9.342;2023-05-10T02:06:59;11.80;99.90
21744;DHT22;11034;48.556;9.342;2023-05-10T02:09:28;11.90;99.90
21744;DHT22;11034;48.556;9.342;2023-05-10T02:11:58;11.90;99.90
21744;DHT22;11034;48.556;9.342;2023-05-10T02:14:27;11.90;99.90
21744;DHT22;11034;48.556;9.342;2023-05-10T02:16:56;11.90;99.90
21744;DHT22;11034;48.556;9.342;2023-05-10T02:19:28;11.90;99.90
21744;DHT22;11034;48.556;9.342;2023-05-10T02:21:59;11.80;99.90
21744;DHT22;11034;48.556;9.342;2023-05-10T02:24:28;11.80;99.90
21744;DHT22;11034;48.556;9.342;2023-05-10T02:26:57;11.80;99.90
21744;DHT22;11034;48.556;9.342;2023-05-10T02:29:27;11.80;99.90
21744;DHT22;11034;48.556;9.342;2023-05-10T02:31:57;11.80;99.90
21744;DHT22;11034;48.556;9.342;2023-05-10T02:34:27;11.80;99.90
21744;DHT22;11034;48.556;9.342;2023-05-10T02:36:55;11.70;99.90
21744;DHT22;11034;48.556;9.342;2023-05-10T02:39:27;11.70;99.90
21744;DHT22;11034;48.556;9.342;2023-05-10T02:41:57;11.70;99.90
21744;DHT22;11034;48.556;9.342;2023-05-10T02:44:27;11.60;99.90
21744;DHT22;11034;48.556;9.342;2023-05-10T02:46:57;11.60;99.90
21744;DHT22;11034;48.556;9.342;2023-05-10T02:49:26;11.60;99.90
21744;DHT22;11034;48.556;9.342;2023-05-10T02:52:00;11.50;99.90
21744;DHT22;11034;48.556;9.342;2023-05-10T02:54:33;11.50;99.90
21744;DHT22;11034;48.556;9.342;2023-05-10T02:57:04;11.60;99.90
21744;DHT22;11034;48.556;9.342;2023-05-10T02:59:33;11.60;99.90
21744;DHT22;11034;48.556;9.342;2023-05-10T03:02:02;11.60;99.90
21744;DHT22;11034;48.556;9.342;2023-05-10T03:04:30;11.60;99.90
21744;DHT22;11034;48.556;9.342;2023-05-10T03:06:58;11.50;99.90
21744;DHT22;11034;48.556;9.342;2023-05-10T03:09:26;11.50;99.90
21744;DHT22;11034;48.556;9.342;2023-05-10T03:12:02;11.50;99.90
21744;DHT22;11034;48.556;9.342;2023-05-10T03:14:45;11.50;99.90
21744;DHT22;11034;48.556;9.342;2023-05-10T03:17:22;11.40;99.90
21744;DHT22;11034;48.556;9.342;2023-05-10T03:19:53;11.40;99.90
21744;DHT22;11034;48.556;9.342;2023-05-10T03:22:25;11.40;99.90
21744;DHT22;11034;48.556;9.342;2023-05-10T03:24:55;11.40;99.90
21744;DHT22;11034;48.556;9.342;2023-05-10T03:27:27;11.40;99.90
21744;DHT22;11034;48.556;9.342;2023-05-10T03:29:55;11.50;99.90
21744;DHT22;11034;48.556;9.342;2023-05-10T03:32:24;11.40;99.90
21744;DHT22;11034;48.556;9.342;2023-05-10T03:34:53;11.40;99.90
21744;DHT22;11034;48.556;9.342;2023-05-10T03:37:21;11.30;99.90
21744;DHT22;11034;48.556;9.342;2023-05-10T03:39:49;11.40;99.90
21744;DHT22;11034;48.556;9.342;2023-05-10T03:42:17;11.40;99.90
21744;DHT22;11034;48.556;9.342;2023-05-10T03:44:47;11.40;99.90
21744;DHT22;11034;48.556;9.342;2023-05-10T03:47:16;11.40;99.90
21744;DHT22;11034;48.556;9.342;2023-05-10T03:49:44;11.40;99.90
21744;DHT22;11034;48.556;9.342;2023-05-10T03:52:12;11.30;99.90
21744;DHT22;11034;48.556;9.342;2023-05-10T03:54:40;11.30;99.90
21744;DHT22;11034;48.556;9.342;2023-05-10T03:57:08;11.30;99.90
21744;DHT22;11034;48.556;9.342;2023-05-10T03:59:36;11.30;99.90
21744;DHT22;11034;48.556;9.342;2023-05-10T04:02:05;11.30;99.90
21744;DHT22;11034;48.556;9.342;2023-05-10T04:04:33;11.30;99.90
21744;DHT22;11034;48.556;9.342;2023-05-10T04:07:01;11.30;99.90
21744;DHT22;11034;48.556;9.342;2023-05-10T04:09:29;11.30;99.90
21744;DHT22;11034;48.556;9.342;2023-05-10T04:11:59;11.40;99.90
21744;DHT22;11034;48.556;9.342;2023-05-10T04:14:27;11.40;99.90
21744;DHT22;11034;48.556;9.342;2023-05-10T04:16:55;11.40;99.90
21744;DHT22;11034;48.556;9.342;2023-05-10T04:19:28;11.40;99.90
21744;DHT22;11034;48.556;9.342;2023-05-10T04:21:56;11.40;99.90
21744;DHT22;11034;48.556;9.342;2023-05-10T04:24:24;11.40;99.90
21744;DHT22;11034;48.556;9.342;2023-05-10T04:26:54;11.40;99.90
21744;DHT22;11034;48.556;9.342;2023-05-10T04:29:23;11.40;99.90
21744;DHT22;11034;48.556;9.342;2023-05-10T04:31:51;11.40;99.90
21744;DHT22;11034;48.556;9.342;2023-05-10T04:34:20;11.50;99.90
21744;DHT22;11034;48.556;9.342;2023-05-10T04:36:50;11.50;99.90
21744;DHT22;11034;48.556;9.342;2023-05-10T04:39:18;11.50;99.90
21744;DHT22;11034;48.556;9.342;2023-05-10T04:41:46;11.50;99.90
21744;DHT22;11034;48.556;9.342;2023-05-10T04:44:14;11.50;99.90
21744;DHT22;11034;48.556;9.342;2023-05-10T04:46:42;11.50;99.90
21744;DHT22;11034;48.556;9.342;2023-05-10T04:49:10;11.50;99.90
21744;DHT22;11034;48.556;9.342;2023-05-10T04:51:38;11.50;99.90
21744;DHT22;11034;48.556;9.342;2023-05-10T04:54:07;11.50;99.90
21744;DHT22;11034;48.556;9.342;2023-05-10T04:56:35;11.50;99.90
21744;DHT22;11034;48.556;9.342;2023-05-10T04:59:03;11.50;99.90
21744;DHT22;11034;48.556;9.342;2023-05-10T05:01:31;11.60;99.90
21744;DHT22;11034;48.556;9.342;2023-05-10T05:04:00;11.60;99.90
21744;DHT22;11034;48.556;9.342;2023-05-10T05:06:28;11.60;99.90
21744;DHT22;11034;48.556;9.342;2023-05-10T05:08:56;11.70;99.90
21744;DHT22;11034;48.556;9.342;2023-05-10T05:11:25;11.70;99.90
21744;DHT22;11034;48.556;9.342;2023-05-10T05:13:53;11.70;99.90
21744;DHT22;11034;48.556;9.342;2023-05-10T05:16:21;11.80;99.90
21744;DHT22;11034;48.556;9.342;2023-05-10T05:18:49;11.80;99.90
21744;DHT22;11034;48.556;9.342;2023-05-10T05:21:17;11.80;99.90
21744;DHT22;11034;48.556;9.342;2023-05-10T05:23:46;11.80;99.90
21744;DHT22;11034;48.556;9.342;2023-05-10T05:26:14;11.80;99.90
21744;DHT22;11034;48.556;9.342;2023-05-10T05:28:44;11.80;99.90
21744;DHT22;11034;48.556;9.342;2023-05-10T05:31:12;11.90;99.90
21744;DHT22;11034;48.556;9.342;2023-05-10T05:33:40;11.90;99.90
21744;DHT22;11034;48.556;9.342;2023-05-10T05:36:08;12.00;99.90
21744;DHT22;11034;48.556;9.342;2023-05-10T05:38:36;12.00;99.90
21744;DHT22;11034;48.556;9.342;2023-05-10T05:41:04;12.10;99.90
21744;DHT22;11034;48.556;9.342;2023-05-10T05:43:32;12.10;99.90
21744;DHT22;11034;48.556;9.342;2023-05-10T05:46:05;12.20;99.90
21744;DHT22;11034;48.556;9.342;2023-05-10T05:48:33;12.30;99.90
21744;DHT22;11034;48.556;9.342;2023-05-10T05:51:01;12.30;99.90
21744;DHT22;11034;48.556;9.342;2023-05-10T05:53:33;12.30;99.90
21744;DHT22;11034;48.556;9.342;2023-05-10T05:56:01;12.30;99.90
21744;DHT22;11034;48.556;9.342;2023-05-10T05:58:30;12.30;99.90
21744;DHT22;11034;48.556;9.342;2023-05-10T06:00:58;12.40;99.90
21744;DHT22;11034;48.556;9.342;2023-05-10T06:03:27;12.40;99.90
21744;DHT22;11034;48.556;9.342;2023-05-10T06:05:55;12.40;99.90
21744;DHT22;11034;48.556;9.342;2023-05-10T06:08:23;12.40;99.90
21744;DHT22;11034;48.556;9.342;2023-05-10T06:10:52;12.50;99.90
21744;DHT22;11034;48.556;9.342;2023-05-10T06:13:20;12.50;99.90
21744;DHT22;11034;48.556;9.342;2023-05-10T06:15:48;12.50;99.90
21744;DHT22;11034;48.556;9.342;2023-05-10T06:18:16;12.40;99.90
21744;DHT22;11034;48.556;9.342;2023-05-10T06:20:45;12.30;99.90
21744;DHT22;11034;48.556;9.342;2023-05-10T06:23:13;12.40;99.90
21744;DHT22;11034;48.556;9.342;2023-05-10T06:25:41;12.40;99.90
21744;DHT22;11034;48.556;9.342;2023-05-10T06:28:09;12.40;99.90
21744;DHT22;11034;48.556;9.342;2023-05-10T06:30:37;12.30;99.90
21744;DHT22;11034;48.556;9.342;2023-05-10T06:33:05;12.30;99.90
21744;DHT22;11034;48.556;9.342;2023-05-10T06:35:33;12.40;99.90
21744;DHT22;11034;48.556;9.342;2023-05-10T06:38:03;12.50;99.90
21744;DHT22;11034;48.556;9.342;2023-05-10T06:40:31;12.60;99.90
21744;DHT22;11034;48.556;9.342;2023-05-10T06:42:59;12.60;99.90
21744;DHT22;11034;48.556;9.342;2023-05-10T06:45:27;12.60;99.90
21744;DHT22;11034;48.556;9.342;2023-05-10T06:47:55;12.70;99.90
21744;DHT22;11034;48.556;9.342;2023-05-10T06:50:24;12.70;99.90
21744;DHT22;11034;48.556;9.342;2023-05-10T06:52:52;12.60;99.90
21744;DHT22;11034;48.556;9.342;2023-05-10T06:55:21;12.60;99.90
21744;DHT22;11034;48.556;9.342;2023-05-10T06:57:49;12.60;99.90
21744;DHT22;11034;48.556;9.342;2023-05-10T07:00:18;12.70;99.90
21744;DHT22;11034;48.556;9.342;2023-05-10T07:02:47;12.70;99.90
21744;DHT22;11034;48.556;9.342;2023-05-10T07:05:15;12.70;99.90
21744;DHT22;11034;48.556;9.342;2023-05-10T07:07:44;12.70;99.90
21744;DHT22;11034;48.556;9.342;2023-05-10T07:10:12;12.60;99.90
21744;DHT22;11034;48.556;9.342;2023-05-10T07:12:41;12.60;99.90
21744;DHT22;11034;48.556;9.342;2023-05-10T07:15:12;12.70;99.90
21744;DHT22;11034;48.556;9.342;2023-05-10T07:17:40;12.70;99.90
21744;DHT22;11034;48.556;9.342;2023-05-10T07:20:12;13.00;99.90
21744;DHT22;11034;48.556;9.342;2023-05-10T07:22:40;13.30;99.90
21744;DHT22;11034;48.556;9.342;2023-05-10T07:25:11;13.50;99.90
21744;DHT22;11034;48.556;9.342;2023-05-10T07:27:48;13.70;99.90
21744;DHT22;11034;48.556;9.342;2023-05-10T07:30:25;13.80;99.90
21744;DHT22;11034;48.556;9.342;2023-05-10T07:32:56;13.80;99.90
21744;DHT22;11034;48.556;9.342;2023-05-10T07:35:25;13.80;99.90
21744;DHT22;11034;48.556;9.342;2023-05-10T07:37:53;13.70;99.90
21744;DHT22;11034;48.556;9.342;2023-05-10T07:40:22;13.70;99.90
21744;DHT22;11034;48.556;9.342;2023-05-10T07:42:54;13.70;99.90
21744;DHT22;11034;48.556;9.342;2023-05-10T07:45:22;13.70;99.90
21744;DHT22;11034;48.556;9.342;2023-05-10T07:47:53;13.60;99.90
21744;DHT22;11034;48.556;9.342;2023-05-10T07:50:21;13.70;99.90
21744;DHT22;11034;48.556;9.342;2023-05-10T07:52:49;13.70;99.90
21744;DHT22;11034;48.556;9.342;2023-05-10T07:55:18;13.60;99.90
21744;DHT22;11034;48.556;9.342;2023-05-10T07:57:46;13.60;99.90
21744;DHT22;11034;48.556;9.342;2023-05-10T08:00:19;13.50;99.90
21744;DHT22;11034;48.556;9.342;2023-05-10T08:02:47;13.50;99.90
21744;DHT22;11034;48.556;9.342;2023-05-10T08:05:16;13.40;99.90
21744;DHT22;11034;48.556;9.342;2023-05-10T08:07:44;13.60;99.90
21744;DHT22;11034;48.556;9.342;2023-05-10T08:10:12;13.70;99.90
21744;DHT22;11034;48.556;9.342;2023-05-10T08:12:40;13.80;99.90
21744;DHT22;11034;48.556;9.342;2023-05-10T08:15:09;13.90;99.90
21744;DHT22;11034;48.556;9.342;2023-05-10T08:17:39;13.90;99.90
21744;DHT22;11034;48.556;9.342;2023-05-10T08:20:08;13.90;99.90
21744;DHT22;11034;48.556;9.342;2023-05-10T08:22:37;14.00;99.90
21744;DHT22;11034;48.556;9.342;2023-05-10T08:25:06;13.80;99.90
21744;DHT22;11034;48.556;9.342;2023-05-10T08:27:34;13.90;99.90
21744;DHT22;11034;48.556;9.342;2023-05-10T08:30:03;14.00;99.90
21744;DHT22;11034;48.556;9.342;2023-05-10T08:32:31;14.10;99.90
21744;DHT22;11034;48.556;9.342;2023-05-10T08:35:00;14.10;99.90
21744;DHT22;11034;48.556;9.342;2023-05-10T08:37:30;14.00;99.90
21744;DHT22;11034;48.556;9.342;2023-05-10T08:40:05;13.90;99.90
21744;DHT22;11034;48.556;9.342;2023-05-10T08:42:36;14.00;99.90
21744;DHT22;11034;48.556;9.342;2023-05-10T08:45:08;14.20;99.90
21744;DHT22;11034;48.556;9.342;2023-05-10T08:47:37;14.30;99.90
21744;DHT22;11034;48.556;9.342;2023-05-10T08:50:09;14.50;99.90
21744;DHT22;11034;48.556;9.342;2023-05-10T08:52:38;14.70;99.90
21744;DHT22;11034;48.556;9.342;2023-05-10T08:55:08;15.00;99.90
21744;DHT22;11034;48.556;9.342;2023-05-10T08:57:36;15.20;99.90
21744;DHT22;11034;48.556;9.342;2023-05-10T09:00:05;15.50;99.90
21744;DHT22;11034;48.556;9.342;2023-05-10T09:02:37;15.40;99.90
21744;DHT22;11034;48.556;9.342;2023-05-10T09:05:07;15.40;99.90
21744;DHT22;11034;48.556;9.342;2023-05-10T09:07:37;15.60;99.90
21744;DHT22;11034;48.556;9.342;2023-05-10T09:10:06;15.70;99.90
21744;DHT22;11034;48.556;9.342;2023-05-10T09:12:40;15.40;99.90
21744;DHT22;11034;48.556;9.342;2023-05-10T09:15:09;15.60;99.90
21744;DHT22;11034;48.556;9.342;2023-05-10T09:17:38;15.60;99.90
21744;DHT22;11034;48.556;9.342;2023-05-10T09:20:10;15.70;99.90
21744;DHT22;11034;48.556;9.342;2023-05-10T09:22:41;15.80;99.90
21744;DHT22;11034;48.556;9.342;2023-05-10T09:25:11;15.80;99.90
21744;DHT22;11034;48.556;9.342;2023-05-10T09:27:43;16.10;99.90
21744;DHT22;11034;48.556;9.342;2023-05-10T09:30:16;16.30;99.90
21744;DHT22;11034;48.556;9.342;2023-05-10T09:32:47;16.40;99.90
21744;DHT22;11034;48.556;9.342;2023-05-10T09:35:18;16.30;99.90
21744;DHT22;11034;48.556;9.342;2023-05-10T09:37:48;16.00;99.90
21744;DHT22;11034;48.556;9.342;2023-05-10T09:40:18;15.70;99.90
21744;DHT22;11034;48.556;9.342;2023-05-10T09:42:52;15.70;99.90
21744;DHT22;11034;48.556;9.342;2023-05-10T09:45:24;15.80;99.90
21744;DHT22;11034;48.556;9.342;2023-05-10T09:47:52;15.70;99.90
21744;DHT22;11034;48.556;9.342;2023-05-10T09:50:21;15.80;99.90
21744;DHT22;11034;48.556;9.342;2023-05-10T09:52:51;15.90;99.90
21744;DHT22;11034;48.556;9.342;2023-05-10T09:55:20;16.00;99.90
21744;DHT22;11034;48.556;9.342;2023-05-10T09:57:49;16.30;99.90
21744;DHT22;11034;48.556;9.342;2023-05-10T10:00:19;16.20;99.90
21744;DHT22;11034;48.556;9.342;2023-05-10T10:02:53;16.50;99.90
21744;DHT22;11034;48.556;9.342;2023-05-10T10:05:29;16.50;99.90
21744;DHT22;11034;48.556;9.342;2023-05-10T10:07:58;16.50;99.90
21744;DHT22;11034;48.556;9.342;2023-05-10T10:10:27;16.80;99.90
21744;DHT22;11034;48.556;9.342;2023-05-10T10:12:55;16.90;99.90
21744;DHT22;11034;48.556;9.342;2023-05-10T10:15:24;17.20;99.90
21744;DHT22;11034;48.556;9.342;2023-05-10T10:17:53;17.10;99.90
21744;DHT22;11034;48.556;9.342;2023-05-10T10:20:22;17.30;99.90
21744;DHT22;11034;48.556;9.342;2023-05-10T10:22:52;17.50;99.90
21744;DHT22;11034;48.556;9.342;2023-05-10T10:25:21;17.30;99.90
21744;DHT22;11034;48.556;9.342;2023-05-10T10:28:04;17.40;99.90
21744;DHT22;11034;48.556;9.342;2023-05-10T10:30:39;17.60;99.90
21744;DHT22;11034;48.556;9.342;2023-05-10T10:33:39;17.80;99.90
21744;DHT22;11034;48.556;9.342;2023-05-10T10:36:08;17.70;99.90
21744;DHT22;11034;48.556;9.342;2023-05-10T10:38:54;17.90;99.90
21744;DHT22;11034;48.556;9.342;2023-05-10T10:41:31;17.80;99.90
21744;DHT22;11034;48.556;9.342;2023-05-10T10:44:24;17.70;99.90
21744;DHT22;11034;48.556;9.342;2023-05-10T10:47:00;17.30;99.90
21744;DHT22;11034;48.556;9.342;2023-05-10T10:49:32;16.50;99.90
21744;DHT22;11034;48.556;9.342;2023-05-10T10:52:23;16.10;99.90
21744;DHT22;11034;48.556;9.342;2023-05-10T10:55:00;15.80;99.90
21744;DHT22;11034;48.556;9.342;2023-05-10T10:57:32;15.30;99.90
21744;DHT22;11034;48.556;9.342;2023-05-10T11:00:26;15.20;99.90
21744;DHT22;11034;48.556;9.342;2023-05-10T11:02:57;14.90;99.90
21744;DHT22;11034;48.556;9.342;2023-05-10T11:05:37;14.70;99.90
21744;DHT22;11034;48.556;9.342;2023-05-10T11:08:17;14.70;99.90
21744;DHT22;11034;48.556;9.342;2023-05-10T11:11:04;14.90;99.90
21744;DHT22;11034;48.556;9.342;2023-05-10T11:13:38;15.00;99.90
21744;DHT22;11034;48.556;9.342;2023-05-10T11:16:15;15.30;99.90
21744;DHT22;11034;48.556;9.342;2023-05-10T11:19:01;15.40;99.90
21744;DHT22;11034;48.556;9.342;2023-05-10T11:21:30;15.50;99.90
21744;DHT22;11034;48.556;9.342;2023-05-10T11:24:00;15.80;99.90
21744;DHT22;11034;48.556;9.342;2023-05-10T11:26:35;16.10;99.90
21744;DHT22;11034;48.556;9.342;2023-05-10T11:29:03;15.80;99.90
21744;DHT22;11034;48.556;9.342;2023-05-10T11:31:31;15.60;99.90
21744;DHT22;11034;48.556;9.342;2023-05-10T11:34:00;15.30;99.90
21744;DHT22;11034;48.556;9.342;2023-05-10T11:36:32;15.30;99.90
21744;DHT22;11034;48.556;9.342;2023-05-10T11:39:00;15.40;99.90
21744;DHT22;11034;48.556;9.342;2023-05-10T11:41:29;14.80;99.90
21744;DHT22;11034;48.556;9.342;2023-05-10T11:43:59;13.70;99.90
21744;DHT22;11034;48.556;9.342;2023-05-10T11:46:28;13.30;99.90
21744;DHT22;11034;48.556;9.342;2023-05-10T11:48:58;12.80;99.90
21744;DHT22;11034;48.556;9.342;2023-05-10T11:51:33;12.40;99.90
21744;DHT22;11034;48.556;9.342;2023-05-10T11:54:06;12.00;99.90
21744;DHT22;11034;48.556;9.342;2023-05-10T11:56:35;11.90;99.90
21744;DHT22;11034;48.556;9.342;2023-05-10T11:59:05;11.70;99.90
21744;DHT22;11034;48.556;9.342;2023-05-10T12:01:33;11.70;99.90
21744;DHT22;11034;48.556;9.342;2023-05-10T12:04:02;11.70;99.90
21744;DHT22;11034;48.556;9.342;2023-05-10T12:06:31;11.80;99.90
21744;DHT22;11034;48.556;9.342;2023-05-10T12:09:05;11.80;99.90
21744;DHT22;11034;48.556;9.342;2023-05-10T12:11:37;11.80;99.90
21744;DHT22;11034;48.556;9.342;2023-05-10T12:14:11;11.80;99.90
21744;DHT22;11034;48.556;9.342;2023-05-10T12:16:39;11.90;99.90
21744;DHT22;11034;48.556;9.342;2023-05-10T12:19:08;12.20;99.90
21744;DHT22;11034;48.556;9.342;2023-05-10T12:21:36;12.40;99.90
21744;DHT22;11034;48.556;9.342;2023-05-10T12:24:05;12.40;99.90
21744;DHT22;11034;48.556;9.342;2023-05-10T12:26:35;12.40;99.90
21744;DHT22;11034;48.556;9.342;2023-05-10T12:29:15;12.30;99.90
21744;DHT22;11034;48.556;9.342;2023-05-10T12:31:52;12.30;99.90
21744;DHT22;11034;48.556;9.342;2023-05-10T12:34:25;12.50;99.90
21744;DHT22;11034;48.556;9.342;2023-05-10T12:36:53;12.70;99.90
21744;DHT22;11034;48.556;9.342;2023-05-10T12:39:22;12.90;99.90
21744;DHT22;11034;48.556;9.342;2023-05-10T12:41:53;13.20;99.90
21744;DHT22;11034;48.556;9.342;2023-05-10T12:44:22;13.50;99.90
21744;DHT22;11034;48.556;9.342;2023-05-10T12:46:51;13.90;99.90
21744;DHT22;11034;48.556;9.342;2023-05-10T12:49:19;14.00;99.90
21744;DHT22;11034;48.556;9.342;2023-05-10T12:51:50;14.40;99.90
21744;DHT22;11034;48.556;9.342;2023-05-10T12:54:19;14.70;99.90
21744;DHT22;11034;48.556;9.342;2023-05-10T12:56:47;15.30;99.90
21744;DHT22;11034;48.556;9.342;2023-05-10T12:59:15;15.70;99.90
21744;DHT22;11034;48.556;9.342;2023-05-10T13:01:48;15.80;99.90
21744;DHT22;11034;48.556;9.342;2023-05-10T13:04:16;15.80;99.90
21744;DHT22;11034;48.556;9.342;2023-05-10T13:06:45;15.90;99.90
21744;DHT22;11034;48.556;9.342;2023-05-10T13:09:16;15.90;99.90
21744;DHT22;11034;48.556;9.342;2023-05-10T13:11:46;16.10;99.90
21744;DHT22;11034;48.556;9.342;2023-05-10T13:14:16;16.20;99.90
21744;DHT22;11034;48.556;9.342;2023-05-10T13:16:45;16.00;99.90
21744;DHT22;11034;48.556;9.342;2023-05-10T13:19:16;15.90;99.90
21744;DHT22;11034;48.556;9.342;2023-05-10T13:21:44;16.10;99.90
21744;DHT22;11034;48.556;9.342;2023-05-10T13:24:14;16.40;99.90
21744;DHT22;11034;48.556;9.342;2023-05-10T13:26:42;16.40;99.90
21744;DHT22;11034;48.556;9.342;2023-05-10T13:29:10;16.40;99.90
21744;DHT22;11034;48.556;9.342;2023-05-10T13:31:38;16.20;99.90
21744;DHT22;11034;48.556;9.342;2023-05-10T13:34:06;16.40;99.90
21744;DHT22;11034;48.556;9.342;2023-05-10T13:36:36;16.60;99.90
21744;DHT22;11034;48.556;9.342;2023-05-10T13:39:04;16.50;99.90
21744;DHT22;11034;48.556;9.342;2023-05-10T13:41:32;16.40;99.90
21744;DHT22;11034;48.556;9.342;2023-05-10T13:44:00;16.30;99.90
21744;DHT22;11034;48.556;9.342;2023-05-10T13:46:29;16.10;99.90
21744;DHT22;11034;48.556;9.342;2023-05-10T13:48:57;16.10;99.90
21744;DHT22;11034;48.556;9.342;2023-05-10T13:51:25;16.20;99.90
21744;DHT22;11034;48.556;9.342;2023-05-10T13:53:54;16.20;99.90
21744;DHT22;11034;48.556;9.342;2023-05-10T13:56:22;16.20;99.90
21744;DHT22;11034;48.556;9.342;2023-05-10T13:58:50;16.20;99.90
21744;DHT22;11034;48.556;9.342;2023-05-10T14:01:21;16.10;99.90
21744;DHT22;11034;48.556;9.342;2023-05-10T14:03:50;15.90;99.90
21744;DHT22;11034;48.556;9.342;2023-05-10T14:06:20;15.80;99.90
21744;DHT22;11034;48.556;9.342;2023-05-10T14:08:48;15.90;99.90
21744;DHT22;11034;48.556;9.342;2023-05-10T14:11:18;15.90;99.90
21744;DHT22;11034;48.556;9.342;2023-05-10T14:13:48;16.10;99.90
21744;DHT22;11034;48.556;9.342;2023-05-10T14:16:16;16.20;99.90
21744;DHT22;11034;48.556;9.342;2023-05-10T14:18:45;16.10;99.90
21744;DHT22;11034;48.556;9.342;2023-05-10T14:21:13;16.20;99.90
21744;DHT22;11034;48.556;9.342;2023-05-10T14:23:41;16.30;99.90
21744;DHT22;11034;48.556;9.342;2023-05-10T14:26:11;16.30;99.90
21744;DHT22;11034;48.556;9.342;2023-05-10T14:28:40;16.40;99.90
21744;DHT22;11034;48.556;9.342;2023-05-10T14:31:08;16.30;99.90
21744;DHT22;11034;48.556;9.342;2023-05-10T14:33:37;16.10;99.90
21744;DHT22;11034;48.556;9.342;2023-05-10T14:36:05;16.00;99.90
21744;DHT22;11034;48.556;9.342;2023-05-10T14:38:33;16.30;99.90
21744;DHT22;11034;48.556;9.342;2023-05-10T14:41:01;16.60;99.90
21744;DHT22;11034;48.556;9.342;2023-05-10T14:43:29;16.70;99.90
21744;DHT22;11034;48.556;9.342;2023-05-10T14:45:59;16.50;99.90
21744;DHT22;11034;48.556;9.342;2023-05-10T14:48:27;16.50;99.90
21744;DHT22;11034;48.556;9.342;2023-05-10T14:50:55;16.50;99.90
21744;DHT22;11034;48.556;9.342;2023-05-10T14:53:23;16.50;99.90
21744;DHT22;11034;48.556;9.342;2023-05-10T14:55:51;16.40;99.90
21744;DHT22;11034;48.556;9.342;2023-05-10T14:58:19;16.20;99.90
21744;DHT22;11034;48.556;9.342;2023-05-10T15:00:47;16.20;99.90
21744;DHT22;11034;48.556;9.342;2023-05-10T15:03:17;16.20;99.90
21744;DHT22;11034;48.556;9.342;2023-05-10T15:05:46;16.20;99.90
21744;DHT22;11034;48.556;9.342;2023-05-10T15:08:17;16.20;99.90
21744;DHT22;11034;48.556;9.342;2023-05-10T15:10:45;16.10;99.90
21744;DHT22;11034;48.556;9.342;2023-05-10T15:13:14;16.10;99.90
21744;DHT22;11034;48.556;9.342;2023-05-10T15:15:42;16.00;99.90
21744;DHT22;11034;48.556;9.342;2023-05-10T15:18:11;16.10;99.90
21744;DHT22;11034;48.556;9.342;2023-05-10T15:20:41;16.20;99.90
21744;DHT22;11034;48.556;9.342;2023-05-10T15:23:09;16.10;99.90
21744;DHT22;11034;48.556;9.342;2023-05-10T15:25:37;16.00;99.90
21744;DHT22;11034;48.556;9.342;2023-05-10T15:28:06;16.10;99.90
21744;DHT22;11034;48.556;9.342;2023-05-10T15:30:36;15.90;99.90
21744;DHT22;11034;48.556;9.342;2023-05-10T15:33:05;16.10;99.90
21744;DHT22;11034;48.556;9.342;2023-05-10T15:35:34;16.10;99.90
21744;DHT22;11034;48.556;9.342;2023-05-10T15:38:06;16.00;99.90
21744;DHT22;11034;48.556;9.342;2023-05-10T15:40:34;15.80;99.90
21744;DHT22;11034;48.556;9.342;2023-05-10T15:43:02;15.90;99.90
21744;DHT22;11034;48.556;9.342;2023-05-10T15:45:31;15.90;99.90
21744;DHT22;11034;48.556;9.342;2023-05-10T15:48:03;16.10;99.90